Time;durP1;ratioP1;P1;durP2;ratioP2;P2;SDS_P1;SDS_P2;PMS_P1;PMS_P2;Temp;Humidity;BMP_temperature;BMP_pressure;BME280_temperature;BME280_humidity;BME280_pressure;Samples;Min_cycle;Max_cycle;Signal;HPM_P1;HPM_P2
2023/10/11 00:01:18;;;;;;;8.77;4.10;;;;;;;14.29;44.58;95711.28;4941474;28;20145;-79
2023/10/11 00:03:52;;;;;;;7.93;3.67;;;;;;;14.20;44.91;95710.59;4957431;28;20042;-78
2023/10/11 00:06:17;;;;;;;6.35;3.67;;;;;;;14.10;44.95;95712.81;4961112;28;20815;-79
2023/10/11 00:08:43;;;;;;;7.03;3.88;;;;;;;14.02;45.33;95716.50;4973962;28;20130;-79
2023/10/11 00:11:08;;;;;;;6.72;4.03;;;;;;;13.98;45.33;95712.56;4947782;28;20035;-79
2023/10/11 00:13:35;;;;;;;8.95;4.10;;;;;;;14.01;45.42;95714.00;4947919;28;20125;-79
2023/10/11 00:16:10;;;;;;;6.60;3.75;;;;;;;13.91;45.38;95715.19;4967962;28;20042;-79
2023/10/11 00:18:41;;;;;;;8.57;3.83;;;;;;;13.90;45.39;95705.50;4948365;28;20043;-79
2023/10/11 00:21:15;;;;;;;7.55;3.75;;;;;;;13.88;45.56;95707.56;4948081;28;20613;-79
2023/10/11 00:23:50;;;;;;;7.55;4.10;;;;;;;13.78;45.76;95701.69;4942273;28;20105;-79
2023/10/11 00:26:18;;;;;;;11.13;4.47;;;;;;;13.72;45.96;95697.13;4952451;28;20630;-79
2023/10/11 00:28:43;;;;;;;11.65;4.43;;;;;;;13.65;45.92;95705.94;4963653;28;20085;-79
2023/10/11 00:31:18;;;;;;;8.13;4.20;;;;;;;13.60;46.54;95702.22;4929218;28;20043;-79
2023/10/11 00:33:43;;;;;;;11.02;4.32;;;;;;;13.51;46.49;95699.69;4918741;28;20122;-79
2023/10/11 00:36:09;;;;;;;9.63;3.97;;;;;;;13.54;46.54;95704.63;4948341;28;20795;-79
2023/10/11 00:38:43;;;;;;;9.40;3.95;;;;;;;13.42;46.80;95698.16;4967016;28;20038;-79
2023/10/11 00:43:41;;;;;;;9.65;3.92;;;;;;;13.21;47.58;95685.66;4930088;28;20172;-79
2023/10/11 00:46:13;;;;;;;9.75;4.13;;;;;;;13.36;47.12;95686.38;4954398;28;20049;-79
2023/10/11 00:48:51;;;;;;;8.02;3.92;;;;;;;13.34;47.11;95688.44;4929454;28;20049;-79
2023/10/11 00:51:18;;;;;;;11.45;4.03;;;;;;;13.26;47.06;95681.38;4962016;28;20042;-79
2023/10/11 00:53:44;;;;;;;7.25;4.00;;;;;;;13.25;47.49;95685.06;4926565;28;20559;-79
2023/10/11 00:56:09;;;;;;;8.05;4.03;;;;;;;13.26;47.27;95680.56;4925141;28;20046;-79
2023/10/11 00:58:38;;;;;;;8.80;4.13;;;;;;;13.23;47.26;95680.94;4931667;28;20420;-79
2023/10/11 01:01:03;;;;;;;12.05;4.03;;;;;;;13.18;47.40;95679.69;4936785;28;20019;-79
2023/10/11 01:03:32;;;;;;;10.25;4.07;;;;;;;13.08;46.85;95679.19;4946206;28;20050;-79
2023/10/11 01:06:00;;;;;;;7.22;3.63;;;;;;;12.96;47.88;95681.53;4944955;28;20056;-79
2023/10/11 01:08:26;;;;;;;9.13;3.90;;;;;;;12.95;47.96;95673.69;4931155;28;20113;-79
2023/10/11 01:10:53;;;;;;;10.57;3.78;;;;;;;12.96;47.79;95678.84;4963965;28;20054;-79
2023/10/11 01:13:19;;;;;;;10.88;3.97;;;;;;;12.82;48.43;95669.88;4965466;28;20031;-79
2023/10/11 01:15:44;;;;;;;9.05;4.35;;;;;;;12.67;48.58;95678.78;4950922;28;20045;-79
2023/10/11 01:18:12;;;;;;;9.95;3.85;;;;;;;12.61;48.24;95660.84;4940299;28;20148;-79
2023/10/11 01:20:40;;;;;;;7.78;3.72;;;;;;;12.57;48.13;95675.59;4965094;28;20026;-78
2023/10/11 01:23:06;;;;;;;6.82;3.75;;;;;;;12.44;47.93;95667.44;4967695;28;20713;-78
2023/10/11 01:25:31;;;;;;;9.13;4.22;;;;;;;12.33;48.51;95661.56;4982035;28;20023;-78
2023/10/11 01:27:57;;;;;;;11.20;4.20;;;;;;;12.20;48.21;95658.75;4970571;28;20022;-78
2023/10/11 01:30:26;;;;;;;8.90;4.15;;;;;;;12.05;49.13;95656.06;4947223;28;20081;-78
2023/10/11 01:32:54;;;;;;;9.45;4.40;;;;;;;11.95;48.64;95649.19;4966259;28;20084;-78
2023/10/11 01:35:20;;;;;;;8.88;3.88;;;;;;;11.81;48.75;95655.38;4962101;28;20043;-78
2023/10/11 01:37:49;;;;;;;10.82;4.13;;;;;;;11.69;49.76;95661.16;4960829;28;20031;-78
2023/10/11 01:40:31;;;;;;;8.95;3.92;;;;;;;11.69;49.97;95652.34;4942650;28;20053;-78
2023/10/11 01:42:56;;;;;;;7.70;3.80;;;;;;;11.66;49.51;95650.03;4947792;28;20046;-78
2023/10/11 01:45:23;;;;;;;8.38;3.90;;;;;;;11.64;50.16;95647.56;4978882;28;20037;-78
2023/10/11 01:47:50;;;;;;;9.77;4.40;;;;;;;11.52;50.93;95649.84;4950305;28;20133;-79
2023/10/11 01:50:16;;;;;;;7.87;3.97;;;;;;;11.49;50.75;95640.38;4959895;28;20059;-78
2023/10/11 01:52:47;;;;;;;8.38;3.92;;;;;;;11.49;50.83;95644.91;4946161;28;20073;-78
2023/10/11 01:55:13;;;;;;;10.18;3.90;;;;;;;11.41;51.67;95642.28;4945245;28;20058;-78
2023/10/11 01:57:39;;;;;;;9.98;4.18;;;;;;;11.39;51.40;95640.66;4964752;28;20036;-78
2023/10/11 02:00:13;;;;;;;7.95;3.88;;;;;;;11.41;51.18;95635.13;4945790;28;20066;-78
2023/10/11 02:02:47;;;;;;;6.93;3.60;;;;;;;11.41;50.88;95635.13;4985063;28;20308;-78
2023/10/11 02:05:15;;;;;;;13.25;4.10;;;;;;;11.35;50.29;95639.34;4966426;28;20054;-77
2023/10/11 02:07:41;;;;;;;8.57;3.80;;;;;;;11.29;51.79;95642.75;4972711;28;20035;-78
2023/10/11 02:10:11;;;;;;;8.10;3.90;;;;;;;11.22;52.21;95639.16;4981219;28;20064;-80
2023/10/11 02:12:37;;;;;;;9.77;3.60;;;;;;;11.13;52.49;95635.75;4968336;28;20395;-79
2023/10/11 02:15:07;;;;;;;10.73;4.13;;;;;;;11.10;51.60;95638.78;4964969;28;20060;-78
2023/10/11 02:17:37;;;;;;;6.78;3.95;;;;;;;11.05;52.58;95644.59;4984315;28;20062;-79
2023/10/11 02:20:07;;;;;;;7.07;3.90;;;;;;;11.06;52.15;95643.63;4982768;28;20079;-79
2023/10/11 02:22:33;;;;;;;6.88;3.67;;;;;;;11.08;52.44;95635.44;4982699;28;20061;-80
2023/10/11 02:24:59;;;;;;;5.57;3.60;;;;;;;11.11;52.24;95643.09;4982490;28;20122;-79
2023/10/11 02:27:25;;;;;;;6.60;3.80;;;;;;;11.15;51.88;95628.38;4964137;28;20319;-78
2023/10/11 02:29:51;;;;;;;6.50;3.72;;;;;;;11.19;51.78;95626.19;4982926;28;20026;-80
2023/10/11 02:32:16;;;;;;;11.43;4.07;;;;;;;11.13;51.65;95630.41;4973368;28;20165;-80
2023/10/11 02:34:43;;;;;;;7.90;3.90;;;;;;;11.15;51.79;95625.72;4958918;28;20183;-79
2023/10/11 02:37:11;;;;;;;7.72;3.90;;;;;;;11.15;51.85;95627.56;4958206;28;20030;-80
2023/10/11 02:39:42;;;;;;;8.40;3.70;;;;;;;11.11;51.62;95632.44;4956223;28;20496;-79
2023/10/11 02:42:08;;;;;;;7.18;3.92;;;;;;;11.05;50.99;95623.28;4967711;28;20033;-78
2023/10/11 02:44:36;;;;;;;6.22;3.63;;;;;;;11.02;51.59;95617.50;4960406;28;20342;-79
2023/10/11 02:47:01;;;;;;;;;;;;;;;10.83;50.46;95623.16;4960278;28;20733;-78
2023/10/11 02:49:31;;;;;;;8.57;3.93;;;;;;;10.87;52.09;95620.97;4974331;28;19948;-78
2023/10/11 02:51:57;;;;;;;5.68;3.45;;;;;;;10.87;52.88;95616.47;4942182;28;20080;-78
2023/10/11 02:54:34;;;;;;;7.00;3.40;;;;;;;10.87;52.46;95619.13;4940373;28;20831;-79
2023/10/11 02:57:06;;;;;;;12.43;3.85;;;;;;;10.87;52.86;95619.13;4960312;28;20518;-78
2023/10/11 02:59:33;;;;;;;8.00;3.88;;;;;;;11.02;52.59;95613.00;4978324;28;20339;-80
2023/10/11 03:02:01;;;;;;;8.45;3.85;;;;;;;11.17;52.65;95614.88;4958046;28;20179;-78
2023/10/11 03:04:27;;;;;;;9.30;4.03;;;;;;;11.36;51.55;95614.34;4961538;28;20541;-79
2023/10/11 03:06:53;;;;;;;7.85;3.70;;;;;;;11.45;51.13;95611.59;4980038;28;20027;-79
2023/10/11 03:09:19;;;;;;;10.10;4.07;;;;;;;11.50;50.68;95609.22;4964244;28;21136;-79
2023/10/11 03:11:45;;;;;;;7.43;3.92;;;;;;;11.55;50.27;95595.31;4984023;28;20454;-79
2023/10/11 03:14:12;;;;;;;10.27;4.28;;;;;;;11.55;50.42;95611.31;4955744;28;20035;-78
2023/10/11 03:16:42;;;;;;;9.93;3.67;;;;;;;11.52;50.61;95602.69;4941918;28;20075;-78
2023/10/11 03:19:10;;;;;;;10.63;4.30;;;;;;;11.47;50.77;95604.25;4946206;28;20080;-80
2023/10/11 03:21:35;;;;;;;9.18;4.20;;;;;;;11.51;50.80;95601.03;4968282;28;20554;-78
2023/10/11 03:24:04;;;;;;;11.75;3.92;;;;;;;11.64;50.36;95595.06;4981110;28;20069;-79
2023/10/11 03:28:58;;;;;;;10.48;3.92;;;;;;;11.65;50.64;95595.88;4985180;28;20025;-78
2023/10/11 03:31:28;;;;;;;9.15;3.83;;;;;;;11.67;50.34;95596.53;4949372;28;20046;-78
2023/10/11 03:33:57;;;;;;;9.77;4.15;;;;;;;11.64;50.41;95596.91;4968069;28;20648;-78
2023/10/11 03:36:35;;;;;;;11.43;4.32;;;;;;;11.74;50.45;95592.13;4942962;28;20077;-78
2023/10/11 03:39:09;;;;;;;7.65;4.00;;;;;;;11.76;50.61;95589.22;4982190;28;20077;-79
2023/10/11 03:41:45;;;;;;;10.27;4.05;;;;;;;11.80;50.00;95587.84;4972415;28;20044;-78
2023/10/11 03:44:10;;;;;;;10.15;3.97;;;;;;;11.77;50.31;95582.91;4970506;28;20182;-78
2023/10/11 03:46:36;;;;;;;9.45;4.20;;;;;;;11.70;50.27;95582.00;4964851;28;20094;-78
2023/10/11 03:49:49;;;;;;;10.48;4.15;;;;;;;11.46;51.07;95579.41;4964293;28;20045;-78
2023/10/11 03:52:00;;;;;;;10.00;3.72;;;;;;;11.57;51.07;95577.31;4968185;28;20117;-78
2023/10/11 03:54:25;;;;;;;10.65;4.00;;;;;;;11.61;50.63;95578.59;4963981;28;20300;-80
2023/10/11 03:56:54;;;;;;;10.90;3.75;;;;;;;11.58;50.89;95585.13;4965131;28;20065;-78
2023/10/11 03:59:20;;;;;;;8.18;3.95;;;;;;;11.53;50.64;95584.88;4952936;28;20195;-78
2023/10/11 04:01:46;;;;;;;6.80;3.78;;;;;;;11.60;50.56;95585.75;4958220;28;20031;-78
2023/10/11 04:04:11;;;;;;;12.43;4.22;;;;;;;11.62;50.47;95589.06;4960784;28;20076;-78
2023/10/11 04:06:37;;;;;;;6.15;3.75;;;;;;;11.60;50.48;95583.09;4957116;28;20043;-78
2023/10/11 04:09:03;;;;;;;10.90;3.75;;;;;;;11.55;50.61;95574.00;4962083;28;20053;-78
2023/10/11 04:11:37;;;;;;;8.07;3.80;;;;;;;11.44;50.70;95583.28;4939827;28;20069;-78
2023/10/11 04:14:03;;;;;;;7.63;3.35;;;;;;;11.33;50.98;95584.59;4945399;28;20057;-78
2023/10/11 04:16:29;;;;;;;7.50;3.50;;;;;;;11.21;51.03;95579.72;4952775;28;20041;-78
2023/10/11 04:18:54;;;;;;;7.55;3.95;;;;;;;11.18;51.07;95581.94;4958789;28;20035;-79
2023/10/11 04:23:48;;;;;;;;;;;;;;;10.99;51.22;95582.22;4958100;28;20066;-78
2023/10/11 04:26:36;;;;;;;7.47;3.80;;;;;;;10.94;51.46;95586.44;4979275;28;19957;-78
2023/10/11 04:29:17;;;;;;;7.35;3.72;;;;;;;10.82;51.10;95588.72;4946773;28;20041;-78
2023/10/11 04:34:32;;;;;;;10.30;4.10;;;;;;;10.54;52.04;95584.78;4962381;28;20070;-78
2023/10/11 04:36:59;;;;;;;6.70;3.58;;;;;;;10.53;52.51;95584.94;4940716;28;20094;-78
2023/10/11 04:39:27;;;;;;;9.88;3.70;;;;;;;10.53;52.45;95595.59;4966851;28;20053;-78
2023/10/11 04:41:59;;;;;;;11.63;3.88;;;;;;;10.47;52.24;95591.81;4982152;28;20343;-77
2023/10/11 04:44:30;;;;;;;8.02;3.90;;;;;;;10.40;52.74;95589.03;4962414;28;20036;-78
2023/10/11 04:47:00;;;;;;;7.78;4.00;;;;;;;10.30;52.97;95597.25;4971293;28;20081;-78
2023/10/11 04:49:26;;;;;;;6.20;3.78;;;;;;;10.32;53.29;95608.56;4975048;28;20166;-78
2023/10/11 04:51:56;;;;;;;9.27;4.20;;;;;;;10.33;53.24;95602.22;4934898;28;20071;-79
2023/10/11 04:54:22;;;;;;;10.00;4.43;;;;;;;10.36;53.26;95599.22;4956643;28;20077;-79
2023/10/11 04:59:20;;;;;;;9.65;4.55;;;;;;;10.38;53.39;95607.03;4975969;28;20365;-78
2023/10/11 05:01:58;;;;;;;8.52;5.32;;;;;;;10.37;53.51;95605.34;4936226;28;20467;-78
2023/10/11 05:04:28;;;;;;;;;;;;;;;10.31;52.40;95606.91;4950425;28;20280;-78
2023/10/11 05:06:57;;;;;;;10.18;5.32;;;;;;;10.29;52.96;95600.09;4970092;28;19942;-78
2023/10/11 05:09:30;;;;;;;8.82;4.82;;;;;;;10.28;53.20;95601.94;4947598;28;20033;-78
2023/10/11 05:12:07;;;;;;;11.40;5.13;;;;;;;10.23;53.28;95598.97;4970468;28;20078;-78
2023/10/11 05:19:39;;;;;;;10.48;5.90;;;;;;;10.10;53.10;95597.72;4973225;28;20080;-78
2023/10/11 05:22:08;;;;;;;10.45;6.63;;;;;;;10.05;53.71;95601.88;4962502;28;20045;-78
2023/10/11 05:25:12;;;;;;;13.45;7.15;;;;;;;10.02;53.68;95602.22;4957332;28;20045;-78
2023/10/11 05:32:50;;;;;;;12.30;6.55;;;;;;;9.82;53.11;95590.19;4951228;28;20686;-78
2023/10/11 05:51:28;;;;;;;13.07;8.40;;;;;;;9.67;54.70;95591.94;4961617;28;20100;-78
2023/10/11 05:53:54;;;;;;;14.60;9.05;;;;;;;9.70;54.78;95595.06;4973786;28;20048;-79
2023/10/11 05:56:22;;;;;;;17.63;9.48;;;;;;;9.72;54.81;95590.41;4973205;28;20073;-79
2023/10/11 05:58:52;;;;;;;16.90;11.15;;;;;;;9.79;54.86;95601.16;4976677;28;20089;-78
2023/10/11 06:01:22;;;;;;;16.77;10.52;;;;;;;9.76;55.05;95596.19;4945561;28;20772;-78
2023/10/11 06:03:49;;;;;;;13.38;9.15;;;;;;;9.84;54.41;95601.50;4961374;28;20172;-78
2023/10/11 06:06:26;;;;;;;13.60;7.70;;;;;;;9.84;53.81;95600.66;4945799;28;20073;-78
2023/10/11 06:08:52;;;;;;;16.88;8.93;;;;;;;9.87;54.10;95602.97;4930647;28;20730;-78
2023/10/11 06:11:18;;;;;;;13.75;6.95;;;;;;;9.89;53.72;95594.81;4942688;28;20069;-78
2023/10/11 06:13:44;;;;;;;15.07;9.55;;;;;;;9.91;54.37;95595.47;4929071;28;20558;-79
2023/10/11 06:16:13;;;;;;;15.90;8.05;;;;;;;9.93;53.93;95604.91;4964128;28;20074;-78
2023/10/11 06:18:39;;;;;;;15.15;9.07;;;;;;;9.96;54.34;95603.75;4944475;28;20815;-73
2023/10/11 06:21:24;;;;;;;15.25;9.13;;;;;;;10.00;53.94;95605.06;4928615;28;20041;-66
2023/10/11 06:23:51;;;;;;;13.48;8.35;;;;;;;10.18;53.94;95596.84;4962455;28;20073;-66
2023/10/11 06:26:52;;;;;;;14.07;7.20;;;;;;;10.30;53.56;95599.91;4967622;28;20074;-64
2023/10/11 06:29:22;;;;;;;15.68;7.57;;;;;;;10.42;53.61;95603.00;4956026;28;20642;-66
2023/10/11 06:31:48;;;;;;;17.13;5.90;;;;;;;10.62;53.53;95619.31;4970180;28;20545;-65
2023/10/11 06:34:18;;;;;;;17.27;7.05;;;;;;;10.96;53.27;95621.72;4964083;28;20135;-68
2023/10/11 06:36:50;;;;;;;14.43;5.60;;;;;;;11.20;52.63;95623.38;4954074;28;20127;-64
2023/10/11 06:42:12;;;;;;;;;;;;;;;11.45;51.64;95617.75;4957304;28;20050;-66
2023/10/11 06:44:38;;;;;;;14.35;7.82;;;;;;;11.59;51.18;95617.97;4959577;28;19924;-67
2023/10/11 06:47:04;;;;;;;19.38;12.30;;;;;;;11.67;50.82;95609.03;4957169;28;20127;-66
2023/10/11 06:49:32;;;;;;;17.50;8.52;;;;;;;11.67;50.89;95609.03;4959434;28;20038;-78
2023/10/11 06:52:01;;;;;;;14.40;7.25;;;;;;;11.74;50.88;95616.13;4948539;28;20204;-78
2023/10/11 06:54:32;;;;;;;11.88;5.28;;;;;;;12.05;50.17;95611.56;4962105;28;20774;-78
2023/10/11 06:56:57;;;;;;;14.15;7.47;;;;;;;12.29;49.78;95620.25;4958584;28;20129;-78
2023/10/11 06:59:23;;;;;;;14.10;4.97;;;;;;;12.39;49.30;95607.44;4967710;28;20069;-72
2023/10/11 07:01:48;;;;;;;21.10;12.45;;;;;;;12.57;49.43;95608.03;4958421;28;20035;-72
2023/10/11 07:04:18;;;;;;;14.60;4.63;;;;;;;12.33;49.09;95618.03;4954099;28;20065;-72
2023/10/11 07:06:46;;;;;;;13.25;4.93;;;;;;;12.71;48.97;95608.97;4958820;28;20749;-72
2023/10/11 07:09:20;;;;;;;18.17;8.23;;;;;;;12.91;48.10;95601.94;4962359;28;20073;-71
2023/10/11 07:14:30;;;;;;;11.73;4.30;;;;;;;13.25;47.77;95610.22;4968095;28;20118;-73
2023/10/11 07:16:55;;;;;;;12.63;4.50;;;;;;;13.15;48.15;95621.25;4965488;28;20050;-73
2023/10/11 07:19:21;;;;;;;12.40;4.43;;;;;;;12.92;48.02;95616.94;4964509;28;20499;-73
2023/10/11 07:27:09;;;;;;;17.83;4.40;;;;;;;13.35;47.72;95614.38;4955619;28;20146;-74
2023/10/11 07:29:42;;;;;;;17.77;6.70;;;;;;;13.30;47.82;95613.13;4944707;28;20042;-74
2023/10/11 07:32:09;;;;;;;10.10;4.68;;;;;;;13.50;47.58;95608.94;4958087;28;20569;-74
2023/10/11 07:34:36;;;;;;;12.52;4.07;;;;;;;13.83;47.20;95610.94;4960914;28;20042;-74
2023/10/11 07:37:04;;;;;;;10.13;4.25;;;;;;;13.31;48.30;95608.63;4944951;28;20046;-74
2023/10/11 07:39:33;;;;;;;14.52;4.30;;;;;;;14.01;47.48;95615.78;4955769;28;20051;-75
2023/10/11 07:44:31;;;;;;;14.05;7.15;;;;;;;13.93;47.46;95603.41;4961700;28;20046;-74
2023/10/11 07:46:57;;;;;;;12.50;4.63;;;;;;;13.70;46.85;95612.53;4954573;28;20062;-75
2023/10/11 07:49:25;;;;;;;12.32;6.07;;;;;;;13.70;47.11;95609.88;4961178;28;20043;-73
2023/10/11 07:51:58;;;;;;;11.85;5.10;;;;;;;14.24;46.09;95616.50;4963082;28;20058;-75
2023/10/11 07:54:25;;;;;;;16.35;5.03;;;;;;;14.24;46.09;95616.50;4965003;28;21000;-74
2023/10/11 07:57:00;;;;;;;14.48;4.50;;;;;;;13.91;46.39;95624.19;4963917;28;20041;-73
2023/10/11 07:59:30;;;;;;;15.18;6.38;;;;;;;14.42;45.58;95621.28;4964548;28;20038;-73
2023/10/11 08:01:59;;;;;;;16.92;6.72;;;;;;;14.47;45.22;95610.78;4945306;28;20054;-73
2023/10/11 08:04:28;;;;;;;15.55;7.45;;;;;;;14.75;45.02;95617.84;4964658;28;20669;-73
2023/10/11 08:06:59;;;;;;;23.20;13.93;;;;;;;15.00;44.46;95619.13;4967144;28;20045;-74
2023/10/11 08:09:45;;;;;;;11.45;4.57;;;;;;;15.34;43.37;95617.25;4926034;28;20033;-73
2023/10/11 08:12:15;;;;;;;12.90;4.70;;;;;;;14.85;44.50;95623.66;4957420;28;20137;-74
2023/10/11 08:14:46;;;;;;;16.02;8.38;;;;;;;15.57;43.54;95613.31;4942039;28;20124;-74
2023/10/11 08:17:16;;;;;;;11.95;4.53;;;;;;;15.64;43.20;95611.44;4951981;28;20042;-74
2023/10/11 08:19:44;;;;;;;8.68;4.50;;;;;;;15.42;43.75;95608.97;4939520;28;20042;-72
2023/10/11 08:22:11;;;;;;;13.20;4.40;;;;;;;16.06;41.75;95612.94;4958880;28;20500;-72
2023/10/11 08:24:46;;;;;;;13.45;4.43;;;;;;;16.03;41.98;95622.25;4964997;28;20035;-72
2023/10/11 08:27:12;;;;;;;19.63;11.23;;;;;;;15.93;41.57;95628.06;4956726;28;20156;-72
2023/10/11 08:29:42;;;;;;;9.15;4.65;;;;;;;15.28;42.43;95626.09;4959299;28;20069;-73
2023/10/11 08:32:12;;;;;;;13.10;4.97;;;;;;;;;;4963858;28;20054;-72
2023/10/11 08:34:38;;;;;;;15.05;4.60;;;;;;;15.52;42.43;95616.59;4940841;28;20102;-72
2023/10/11 08:37:07;;;;;;;11.60;5.80;;;;;;;15.72;41.55;95616.56;4964842;28;20038;-72
2023/10/11 08:39:35;;;;;;;15.90;9.25;;;;;;;15.75;41.93;95605.41;4960683;28;20042;-72
2023/10/11 08:42:09;;;;;;;12.35;4.93;;;;;;;15.93;41.68;95609.28;4959191;28;20042;-73
2023/10/11 08:44:35;;;;;;;13.77;3.88;;;;;;;15.17;42.77;95609.63;4940946;28;20138;-73
2023/10/11 08:47:03;;;;;;;12.00;4.00;;;;;;;15.56;42.02;95606.28;4946913;28;20910;-73
2023/10/11 08:49:29;;;;;;;8.88;3.72;;;;;;;15.42;42.56;95605.44;4960399;28;20133;-72
2023/10/11 08:52:00;;;;;;;14.60;8.48;;;;;;;15.45;42.89;95599.66;4959310;28;20035;-72
2023/10/11 08:54:26;;;;;;;11.38;4.40;;;;;;;15.85;42.42;95604.94;4960146;28;20273;-72
2023/10/11 08:56:54;;;;;;;14.55;5.30;;;;;;;14.24;45.03;95603.94;4961942;28;20121;-72
2023/10/11 08:59:25;;;;;;;20.35;5.45;;;;;;;14.70;44.25;95605.06;4956363;28;20046;-72
2023/10/11 09:01:52;;;;;;;16.75;4.40;;;;;;;15.55;42.63;95593.88;4943439;28;20073;-72
2023/10/11 09:04:17;;;;;;;21.73;5.40;;;;;;;14.68;43.27;95596.38;4964370;28;20377;-72
2023/10/11 09:06:43;;;;;;;12.48;4.00;;;;;;;15.19;42.91;95588.78;4962855;28;20042;-72
2023/10/11 09:09:15;;;;;;;10.00;3.90;;;;;;;14.59;44.48;95605.66;4958402;28;20031;-72
2023/10/11 09:11:57;;;;;;;11.45;4.40;;;;;;;14.27;45.02;95608.03;4945826;28;20089;-72
2023/10/11 09:14:23;;;;;;;11.02;4.38;;;;;;;14.97;43.14;95602.44;4948186;28;20120;-72
2023/10/11 09:16:52;;;;;;;10.52;4.07;;;;;;;15.19;42.03;95604.03;4950728;28;20110;-72
2023/10/11 09:19:19;;;;;;;9.32;4.25;;;;;;;15.73;41.48;95598.59;4948511;28;20043;-72
2023/10/11 09:21:57;;;;;;;;;;;;;;;15.41;42.16;95604.66;4948764;28;20023;-73
2023/10/11 09:24:23;;;;;;;;;;;;;;;15.70;41.56;95597.16;4950235;28;19984;-72
2023/10/11 09:29:49;;;;;;;11.98;4.38;;;;;;;15.59;40.82;95608.53;4949283;28;20038;-74
2023/10/11 09:32:19;;;;;;;11.73;4.00;;;;;;;15.73;41.29;95596.75;4950306;28;20673;-73
2023/10/11 09:34:50;;;;;;;10.70;4.07;;;;;;;16.28;40.59;95594.63;4947526;28;20081;-73
2023/10/11 09:37:16;;;;;;;13.02;4.30;;;;;;;16.12;40.99;95590.59;4954451;28;20582;-73
2023/10/11 09:39:42;;;;;;;9.63;4.05;;;;;;;16.80;39.77;95599.09;4957334;28;20035;-74
2023/10/11 09:42:11;;;;;;;8.57;3.72;;;;;;;17.05;39.04;95597.44;4956020;28;20035;-74
2023/10/11 09:44:37;;;;;;;16.83;4.40;;;;;;;15.91;39.57;95586.38;4949734;28;20030;-75
2023/10/11 09:47:06;;;;;;;12.57;4.50;;;;;;;16.68;39.22;95596.28;4930988;28;20088;-74
2023/10/11 09:49:43;;;;;;;10.43;3.40;;;;;;;16.34;38.14;95593.78;4948800;28;20039;-75
2023/10/11 09:52:09;;;;;;;13.73;3.92;;;;;;;16.54;37.71;95597.41;4946112;28;20042;-75
2023/10/11 09:54:39;;;;;;;10.43;3.78;;;;;;;16.41;38.72;95604.53;4929470;28;20104;-75
2023/10/11 09:57:08;;;;;;;9.60;3.88;;;;;;;16.63;38.57;95596.94;4953655;28;20686;-75
2023/10/11 09:59:59;;;;;;;14.18;3.95;;;;;;;17.03;37.61;95593.13;4934690;28;20106;-75
2023/10/11 10:02:34;;;;;;;7.95;3.42;;;;;;;16.76;36.46;95598.69;4952343;28;20523;-75
2023/10/11 10:05:04;;;;;;;13.57;3.83;;;;;;;16.28;36.69;95597.31;4958631;28;20082;-75
2023/10/11 10:07:42;;;;;;;12.10;3.80;;;;;;;17.32;36.59;95594.53;4934044;28;20043;-75
2023/10/11 10:10:10;;;;;;;12.15;4.18;;;;;;;17.74;35.31;95602.81;4950423;28;20563;-75
2023/10/11 10:12:54;;;;;;;10.38;4.05;;;;;;;17.97;35.37;95609.41;4952762;28;20049;-75
2023/10/11 10:15:28;;;;;;;16.50;4.32;;;;;;;18.02;35.53;95604.16;4954447;28;20575;-73
2023/10/11 10:17:56;;;;;;;12.35;4.40;;;;;;;17.32;36.58;95616.06;4937948;28;20126;-74
2023/10/11 10:20:34;;;;;;;11.50;3.63;;;;;;;18.37;33.31;95616.16;4954054;28;20043;-74
2023/10/11 10:23:15;;;;;;;8.70;3.70;;;;;;;18.64;34.07;95615.00;4955166;28;20068;-78
2023/10/11 10:25:47;;;;;;;12.23;4.18;;;;;;;18.58;34.31;95615.91;4958257;28;20034;-78
2023/10/11 10:31:12;;;;;;;8.52;3.80;;;;;;;18.61;34.18;95605.50;4951643;28;20423;-78
2023/10/11 10:33:40;;;;;;;11.65;4.00;;;;;;;18.03;34.39;95613.91;4953161;28;20073;-78
2023/10/11 10:36:21;;;;;;;10.82;3.80;;;;;;;18.04;35.09;95607.47;4942359;28;20448;-78
2023/10/11 10:41:37;;;;;;;14.60;4.37;;;;;;;18.50;34.19;95615.16;4966413;28;20097;-79
2023/10/11 10:44:02;;;;;;;6.60;3.20;;;;;;;17.97;35.71;95616.66;4946589;28;20393;-78
2023/10/11 10:46:27;;;;;;;13.13;4.40;;;;;;;18.29;34.58;95613.81;4967363;28;20047;-78
2023/10/11 10:48:55;;;;;;;7.50;3.50;;;;;;;17.78;35.74;95604.00;4966485;28;20034;-77
2023/10/11 10:51:20;;;;;;;13.93;3.60;;;;;;;17.37;35.65;95608.97;4967817;28;20346;-79
2023/10/11 10:53:50;;;;;;;11.55;4.32;;;;;;;18.04;34.60;95620.94;4971519;28;20038;-78
2023/10/11 10:56:20;;;;;;;14.95;4.03;;;;;;;18.54;33.48;95612.81;4948830;28;20043;-78
2023/10/11 10:58:46;;;;;;;10.82;4.28;;;;;;;18.39;34.33;95618.63;4969050;28;20834;-76
2023/10/11 11:01:11;;;;;;;11.85;3.90;;;;;;;18.33;34.22;95614.16;4966054;28;20030;-78
2023/10/11 11:03:37;;;;;;;10.52;3.80;;;;;;;17.64;35.01;95615.97;4938190;28;20861;-78
2023/10/11 11:06:03;;;;;;;7.47;3.67;;;;;;;19.00;33.71;95613.19;4965814;28;20038;-78
2023/10/11 11:08:31;;;;;;;14.65;3.55;;;;;;;18.67;34.16;95609.16;4943501;28;20043;-78
2023/10/11 11:11:19;;;;;;;14.05;3.75;;;;;;;19.39;33.06;95599.28;4943042;28;20485;-77
2023/10/11 11:13:48;;;;;;;8.95;3.70;;;;;;;19.25;33.52;95597.84;4947977;28;20027;-76
2023/10/11 11:16:28;;;;;;;7.57;3.33;;;;;;;18.72;33.12;95592.25;4949696;28;20625;-77
2023/10/11 11:19:00;;;;;;;10.93;4.03;;;;;;;19.41;32.73;95607.16;4958959;28;20043;-77
2023/10/11 11:21:29;;;;;;;13.70;3.75;;;;;;;19.58;32.11;95591.88;4960688;28;20783;-77
2023/10/11 11:23:54;;;;;;;11.00;4.05;;;;;;;19.55;32.68;95595.03;4970709;28;20069;-77
2023/10/11 11:26:22;;;;;;;9.60;3.88;;;;;;;19.23;32.81;95598.09;4942623;28;20038;-77
2023/10/11 11:28:48;;;;;;;12.38;4.28;;;;;;;18.97;32.44;95602.88;4942600;28;20030;-76
2023/10/11 11:31:13;;;;;;;8.63;3.60;;;;;;;18.70;31.90;95597.91;4949209;28;20038;-78
2023/10/11 11:34:04;;;;;;;6.85;3.35;;;;;;;18.36;32.82;95592.94;4949282;28;20065;-77
2023/10/11 11:36:34;;;;;;;14.48;4.05;;;;;;;18.48;32.51;95586.78;4938826;28;20043;-77
2023/10/11 11:39:25;;;;;;;10.20;4.30;;;;;;;18.21;33.03;95597.91;4957419;28;20081;-77
2023/10/11 11:41:54;;;;;;;10.68;4.22;;;;;;;18.01;34.04;95591.75;4950632;28;20127;-77
2023/10/11 11:44:20;;;;;;;7.47;3.20;;;;;;;18.60;33.06;95586.84;4958560;28;20039;-77
2023/10/11 11:46:50;;;;;;;8.43;4.00;;;;;;;18.62;33.06;95590.13;4946157;28;20775;-76
2023/10/11 11:49:20;;;;;;;16.08;3.97;;;;;;;19.37;32.21;95584.41;4961190;28;20795;-77
2023/10/11 11:51:46;;;;;;;11.40;4.07;;;;;;;19.63;32.21;95585.78;4967128;28;20561;-79
2023/10/11 11:54:17;;;;;;;12.48;4.22;;;;;;;20.19;31.37;95571.00;4944959;28;20055;-78
2023/10/11 11:56:43;;;;;;;13.77;3.95;;;;;;;19.68;31.33;95568.88;4961363;28;20029;-78
2023/10/11 11:59:17;;;;;;;11.88;4.18;;;;;;;20.07;31.44;95565.63;4954485;28;20147;-78
2023/10/11 12:01:59;;;;;;;10.82;3.60;;;;;;;19.90;31.15;95565.50;4939288;28;20152;-77
2023/10/11 12:04:29;;;;;;;11.88;3.72;;;;;;;20.27;29.96;95573.28;4952232;28;21032;-78
2023/10/11 12:06:58;;;;;;;11.90;3.83;;;;;;;20.89;30.11;95567.31;4934005;28;20419;-79
2023/10/11 12:09:31;;;;;;;11.10;3.67;;;;;;;20.57;30.20;95572.19;4953284;28;21048;-78
2023/10/11 12:12:02;;;;;;;11.77;4.07;;;;;;;20.40;29.96;95569.47;4951927;28;20049;-78
2023/10/11 12:14:27;;;;;;;11.52;3.70;;;;;;;19.97;30.19;95567.06;4938146;28;20047;-78
2023/10/11 12:16:55;;;;;;;9.77;3.30;;;;;;;20.24;29.61;95565.66;4937952;28;20058;-79
2023/10/11 12:19:20;;;;;;;12.27;3.60;;;;;;;20.59;29.57;95551.16;4957417;28;20840;-78
2023/10/11 12:21:46;;;;;;;9.65;3.40;;;;;;;21.66;28.80;95543.31;4961979;28;20023;-77
2023/10/11 12:24:11;;;;;;;10.93;3.75;;;;;;;21.64;27.92;95558.97;4946036;28;20031;-80
2023/10/11 12:26:44;;;;;;;12.77;4.03;;;;;;;22.15;27.29;95537.13;4960932;28;20041;-79
2023/10/11 12:29:12;;;;;;;9.15;3.33;;;;;;;23.08;25.76;95535.50;4942354;28;20872;-78
2023/10/11 12:31:41;;;;;;;14.20;3.60;;;;;;;23.61;25.47;95534.72;4960946;28;20044;-77
2023/10/11 12:34:10;;;;;;;7.88;3.47;;;;;;;23.61;25.41;95540.16;4941158;28;20034;-77
2023/10/11 12:36:41;;;;;;;11.88;3.55;;;;;;;24.37;24.29;95523.63;4955199;28;20038;-78
2023/10/11 12:39:08;;;;;;;10.27;3.58;;;;;;;23.17;25.48;95531.25;4946106;28;20062;-78
2023/10/11 12:41:33;;;;;;;12.88;3.70;;;;;;;24.59;24.60;95520.66;4968415;28;20025;-77
2023/10/11 12:44:00;;;;;;;10.52;3.85;;;;;;;25.49;23.27;95517.59;4942622;28;20083;-77